Chouteau, Oklahoma
Current Conditions -  °F | °C
As of 11:15 AM on Thursday 18 Dec 2014 (Local Time) from KGCM Reporting Station
Haze Haze  
Wind Chill: 37°   Ceiling: 500
Heat Index: 37°   Visibility: 5mi
Dew Point: 37°   Wind: 0mph
Humidity: 100%   Direction: NA
Pressure: 30.23"   Gusts: NA
Location:  36.19°N, 95.34°W
Report Text: KGCM 181715Z AUTO 00000KT 5SM BR OVC005 03/03 A3023 RMK AO2
Loading
Personal Weather Stations






























Interactive Weather Map New forecast layout! Learn more

10-Day Weather Forecast

Advertisements
Track Severe Weather on mobile